Isla De Los Estados, Argentina
Current Conditions -  °F | °C
As of 10:00 AM on Sunday 23 Nov 2014 (Local Time) from SAWH Reporting Station
Rain Showers Rain Showers  
Wind Chill: 36°   Ceiling: 8000
Heat Index: 41°   Visibility: 6mi
Dew Point: 30°   Wind: 7mph
Humidity: 65%   Direction: 160°SSE
Pressure: 29.26"   Gusts: NA
Location:  54.93°S, 64.65°W
Report Text: SAWH 231300Z 16006KT 9999 VCSH FEW040SCT050 OVC080 05/M01 Q0991
Loading
Personal Weather Stations






























Interactive Weather Map New forecast layout! Learn more

10-Day Weather Forecast

Advertisements
Track Severe Weather on mobile